createdAt,value
2023-09-30T00:00:02.078Z,101642.06
2023-09-30T00:02:29.229Z,101632.53
2023-09-30T00:04:56.356Z,101638.03
2023-09-30T00:07:23.446Z,101644.25
2023-09-30T00:09:51.965Z,101634.22
2023-09-30T00:12:19.396Z,101631.03
2023-09-30T00:14:46.668Z,101628.59
2023-09-30T00:17:13.871Z,101644.88
2023-09-30T00:19:41.019Z,101644.06
2023-09-30T00:22:08.094Z,101640.03
2023-09-30T00:24:35.419Z,101635.25
2023-09-30T00:27:02.813Z,101638.25
2023-09-30T00:29:29.986Z,101647.81
2023-09-30T00:31:57.060Z,101664.28
2023-09-30T00:34:24.131Z,101674.63
2023-09-30T00:36:51.463Z,101667.28
2023-09-30T00:39:18.607Z,101676.03
2023-09-30T00:41:45.697Z,101675.00
2023-09-30T00:44:12.718Z,101674.53
2023-09-30T00:46:42.648Z,101671.19
2023-09-30T00:49:11.375Z,101675.66
2023-09-30T00:51:39.451Z,101672.72
2023-09-30T00:54:07.370Z,101670.31
2023-09-30T00:56:34.986Z,101668.81
2023-09-30T00:59:02.319Z,101670.72
2023-09-30T01:01:29.779Z,101671.03
2023-09-30T01:03:57.265Z,101672.72
2023-09-30T01:06:24.740Z,101687.59
2023-09-30T01:08:52.151Z,101673.50
2023-09-30T01:11:19.381Z,101677.13
2023-09-30T01:13:48.484Z,101687.47
2023-09-30T01:16:16.147Z,101686.66
2023-09-30T01:18:44.443Z,101697.31
2023-09-30T01:21:12.748Z,101686.03
2023-09-30T01:23:40.167Z,101676.00
2023-09-30T01:26:11.135Z,101690.97
2023-09-30T01:28:38.302Z,101689.84
2023-09-30T01:31:06.279Z,101689.84
2023-09-30T01:33:34.253Z,101692.88
2023-09-30T01:36:01.931Z,101697.47
2023-09-30T01:38:29.115Z,101694.28
2023-09-30T01:40:58.747Z,101703.31
2023-09-30T01:43:27.973Z,101690.84
2023-09-30T01:45:55.172Z,101687.91
2023-09-30T01:48:22.394Z,101707.91
2023-09-30T01:50:49.442Z,101713.34
2023-09-30T01:53:16.637Z,101714.44
2023-09-30T01:55:45.428Z,101716.34
2023-09-30T01:58:12.719Z,101714.72
2023-09-30T02:00:40.022Z,101709.59
2023-09-30T02:03:08.504Z,101708.00
2023-09-30T02:05:35.978Z,101718.34
2023-09-30T02:08:07.062Z,101725.84
2023-09-30T02:10:34.806Z,101726.97
2023-09-30T02:13:02.369Z,101726.16
2023-09-30T02:15:29.510Z,101733.97
2023-09-30T02:17:56.813Z,101733.19
2023-09-30T02:20:26.836Z,101731.38
2023-09-30T02:22:55.351Z,101725.13
2023-09-30T02:25:22.667Z,101734.97
2023-09-30T02:27:50.783Z,101729.25
2023-09-30T02:30:18.657Z,101740.31
2023-09-30T02:32:47.539Z,101745.22
2023-09-30T02:35:17.734Z,101738.47
2023-09-30T02:37:45.127Z,101737.31
2023-09-30T02:40:12.610Z,101721.94
2023-09-30T02:42:41.065Z,101727.56
2023-09-30T02:45:09.671Z,101734.59
2023-09-30T02:47:38.104Z,101738.19
2023-09-30T02:50:12.711Z,101739.28
2023-09-30T02:52:42.903Z,101747.78
2023-09-30T02:55:13.377Z,101742.69
2023-09-30T02:57:40.908Z,101729.22
2023-09-30T03:00:22.378Z,101751.78
2023-09-30T03:02:58.588Z,101739.16
2023-09-30T03:05:25.812Z,101742.81
2023-09-30T03:07:53.016Z,101756.38
2023-09-30T03:10:24.781Z,101752.97
2023-09-30T03:12:52.930Z,101753.53
2023-09-30T03:15:20.737Z,101761.84
2023-09-30T03:17:50.260Z,101759.75
2023-09-30T03:20:21.206Z,101750.38
2023-09-30T03:22:48.988Z,101752.06
2023-09-30T03:25:18.912Z,101745.25
2023-09-30T03:27:49.115Z,101742.06
2023-09-30T03:30:17.199Z,101755.34
2023-09-30T03:32:44.880Z,101765.66
2023-09-30T03:35:16.177Z,101755.78
2023-09-30T03:37:46.756Z,101769.72
2023-09-30T03:40:19.647Z,101761.78
2023-09-30T03:42:50.593Z,101762.38
2023-09-30T03:45:18.474Z,101755.66
2023-09-30T03:47:46.922Z,101762.97
2023-09-30T03:50:15.506Z,101762.16
2023-09-30T03:52:45.712Z,101754.66
2023-09-30T03:55:17.313Z,101751.47
2023-09-30T03:57:52.495Z,101750.66
2023-09-30T04:00:21.512Z,101743.63
2023-09-30T04:03:00.839Z,101750.72
2023-09-30T04:05:30.866Z,101749.41
2023-09-30T04:07:58.056Z,101748.06
2023-09-30T04:10:26.230Z,101745.06
2023-09-30T04:12:53.550Z,101736.00
2023-09-30T04:15:20.836Z,101743.97
2023-09-30T04:17:49.552Z,101751.00
2023-09-30T04:20:24.462Z,101754.81
2023-09-30T04:22:52.431Z,101744.91
2023-09-30T04:25:19.843Z,101753.84
2023-09-30T04:27:49.609Z,101751.72
2023-09-30T04:30:18.645Z,101749.50
2023-09-30T04:32:45.882Z,101762.00
2023-09-30T04:35:12.987Z,101759.88
2023-09-30T04:37:40.327Z,101748.47
2023-09-30T04:40:16.552Z,101736.03
2023-09-30T04:42:45.680Z,101753.09
2023-09-30T04:45:13.890Z,101753.34
2023-09-30T04:47:41.160Z,101768.78
2023-09-30T04:50:09.610Z,101770.75
2023-09-30T04:52:36.779Z,101774.56
2023-09-30T04:55:05.437Z,101773.75
2023-09-30T04:57:35.480Z,101765.13
2023-09-30T05:00:02.601Z,101773.47
2023-09-30T05:02:29.679Z,101778.59
2023-09-30T05:04:56.867Z,101775.09
2023-09-30T05:07:24.059Z,101766.16
2023-09-30T05:09:52.251Z,101766.72
2023-09-30T05:12:19.461Z,101779.94
2023-09-30T05:14:46.570Z,101768.88
2023-09-30T05:17:14.406Z,101775.91
2023-09-30T05:19:41.908Z,101767.19
2023-09-30T05:22:08.957Z,101763.19
2023-09-30T05:24:36.457Z,101753.34
2023-09-30T05:27:03.695Z,101760.13
2023-09-30T05:29:34.423Z,101770.66
2023-09-30T05:32:01.657Z,101771.16
2023-09-30T05:34:29.131Z,101779.03
2023-09-30T05:36:56.320Z,101784.19
2023-09-30T05:39:23.448Z,101784.47
2023-09-30T05:41:50.795Z,101789.53
2023-09-30T05:44:18.018Z,101778.19
2023-09-30T05:46:46.592Z,101782.41
2023-09-30T05:49:14.935Z,101785.94
2023-09-30T05:51:42.835Z,101785.66
2023-09-30T05:54:13.096Z,101788.34
2023-09-30T05:56:41.208Z,101791.06
2023-09-30T05:59:08.637Z,101792.91
2023-09-30T06:01:37.126Z,101789.38
2023-09-30T06:04:04.648Z,101800.75
2023-09-30T06:06:31.917Z,101800.47
2023-09-30T06:09:01.900Z,101805.59
2023-09-30T06:11:32.139Z,101822.28
2023-09-30T06:14:02.327Z,101817.91
2023-09-30T06:16:32.896Z,101824.63
2023-09-30T06:19:00.295Z,101820.97
2023-09-30T06:21:30.503Z,101822.59
2023-09-30T06:23:57.917Z,101827.41
2023-09-30T06:26:30.652Z,101839.53
2023-09-30T06:29:00.259Z,101845.16
2023-09-30T06:31:28.668Z,101845.59
2023-09-30T06:33:59.589Z,101842.00
2023-09-30T06:36:30.027Z,101854.75
2023-09-30T06:38:57.482Z,101851.28
2023-09-30T06:41:24.955Z,101863.19
2023-09-30T06:43:53.099Z,101865.50
2023-09-30T06:46:20.328Z,101861.69
2023-09-30T06:48:47.439Z,101875.59
2023-09-30T06:51:18.926Z,101885.06
2023-09-30T06:53:47.341Z,101894.00
2023-09-30T06:56:16.062Z,101885.06
2023-09-30T06:58:45.895Z,101884.75
2023-09-30T07:01:18.560Z,101898.50
2023-09-30T07:03:49.182Z,101902.56
2023-09-30T07:06:24.059Z,101899.56
2023-09-30T07:08:54.277Z,101898.97
2023-09-30T07:11:30.290Z,101901.31
2023-09-30T07:14:01.587Z,101893.72
2023-09-30T07:16:29.019Z,101900.38
2023-09-30T07:18:56.757Z,101919.09
2023-09-30T07:21:24.321Z,101914.66
2023-09-30T07:23:51.757Z,101920.59
2023-09-30T07:26:18.786Z,101924.31
2023-09-30T07:28:48.632Z,101914.69
2023-09-30T07:31:15.866Z,101929.00
2023-09-30T07:33:43.249Z,101940.59
2023-09-30T07:36:10.397Z,101951.84
2023-09-30T07:38:38.324Z,101950.84
2023-09-30T07:41:06.341Z,101952.19
2023-09-30T07:43:34.745Z,101966.47
2023-09-30T07:46:09.914Z,101962.56
2023-09-30T07:48:37.198Z,101970.75
2023-09-30T07:51:11.255Z,101969.88
2023-09-30T07:53:38.310Z,101981.63
2023-09-30T07:56:05.458Z,101985.38
2023-09-30T07:58:33.308Z,101989.28
2023-09-30T08:01:01.404Z,102000.84
2023-09-30T08:03:29.622Z,101997.97
2023-09-30T08:05:57.248Z,102004.00
2023-09-30T08:08:25.296Z,102015.09
2023-09-30T08:10:56.783Z,102017.38
2023-09-30T08:13:27.141Z,102015.78
2023-09-30T08:15:54.443Z,102037.72
2023-09-30T08:18:21.663Z,102049.59
2023-09-30T08:20:50.221Z,102060.47
2023-09-30T08:23:17.346Z,102062.25
2023-09-30T08:25:46.661Z,102078.56
2023-09-30T08:28:13.976Z,102078.38
2023-09-30T08:30:42.069Z,102087.41
2023-09-30T08:33:09.476Z,102094.16
2023-09-30T08:35:40.560Z,102098.47
2023-09-30T08:38:07.654Z,102113.16
2023-09-30T08:40:45.303Z,102124.72
2023-09-30T08:43:13.251Z,102143.72
2023-09-30T08:45:43.140Z,102154.28
2023-09-30T08:48:13.078Z,102148.91
2023-09-30T08:50:42.075Z,102165.34
2023-09-30T08:53:12.939Z,102174.09
2023-09-30T08:55:44.623Z,102185.22
2023-09-30T08:58:14.586Z,102188.41
2023-09-30T09:00:41.839Z,102203.81
2023-09-30T09:03:09.918Z,102210.06
2023-09-30T09:05:37.150Z,102195.56
2023-09-30T09:08:04.584Z,102199.97
2023-09-30T09:10:31.739Z,102207.63
2023-09-30T09:12:59.874Z,102219.22
2023-09-30T09:15:29.751Z,102216.72
2023-09-30T09:17:57.207Z,102236.47
2023-09-30T09:20:26.934Z,102237.13
2023-09-30T09:22:56.607Z,102250.13
2023-09-30T09:25:24.572Z,102254.56
2023-09-30T09:27:52.811Z,102264.00
2023-09-30T09:30:25.437Z,102267.16
2023-09-30T09:32:59.024Z,102274.03
2023-09-30T09:35:30.425Z,102272.78
2023-09-30T09:37:58.364Z,102278.59
2023-09-30T09:40:30.265Z,102296.78
2023-09-30T09:42:58.261Z,102294.47
2023-09-30T09:45:28.987Z,102299.13
2023-09-30T09:47:56.209Z,102300.19
2023-09-30T09:50:24.182Z,102296.22
2023-09-30T09:52:53.297Z,102298.31
2023-09-30T09:55:23.052Z,102294.06
2023-09-30T09:57:51.006Z,102292.81
2023-09-30T10:00:24.976Z,102309.88
2023-09-30T10:02:53.493Z,102307.63
2023-09-30T10:05:22.187Z,102306.03
2023-09-30T10:07:56.705Z,102306.97
2023-09-30T10:10:26.019Z,102310.19
2023-09-30T10:12:53.262Z,102305.56
2023-09-30T10:15:26.345Z,102307.31
2023-09-30T10:18:10.314Z,102315.97
2023-09-30T10:20:49.959Z,102321.44
2023-09-30T10:23:22.417Z,102323.22
2023-09-30T10:25:52.654Z,102328.69
2023-09-30T10:28:38.627Z,102330.59
2023-09-30T10:31:15.032Z,102329.78
2023-09-30T10:34:02.701Z,102334.28
2023-09-30T10:36:35.398Z,102335.09
2023-09-30T10:39:04.064Z,102342.31
2023-09-30T10:41:40.720Z,102346.63
2023-09-30T10:44:26.442Z,102352.19
2023-09-30T10:46:59.042Z,102350.44
2023-09-30T10:49:26.151Z,102361.38
2023-09-30T10:51:55.208Z,102351.34
2023-09-30T10:54:26.926Z,102355.31
2023-09-30T10:56:54.906Z,102361.56
2023-09-30T10:59:26.306Z,102366.38
2023-09-30T11:01:54.475Z,102366.72
2023-09-30T11:04:22.537Z,102373.34
2023-09-30T11:06:52.529Z,102382.00
2023-09-30T11:09:22.561Z,102360.97
2023-09-30T11:11:51.712Z,102358.31
2023-09-30T11:14:21.789Z,102358.19
2023-09-30T11:16:50.708Z,102363.13
2023-09-30T11:19:19.494Z,102349.16
2023-09-30T11:21:46.994Z,102359.38
2023-09-30T11:24:15.435Z,102361.50
2023-09-30T11:26:42.783Z,102363.00
2023-09-30T11:29:14.863Z,102361.75
2023-09-30T11:31:43.851Z,102358.72
2023-09-30T11:34:12.695Z,102363.44
2023-09-30T11:36:57.978Z,102346.78
2023-09-30T11:39:29.722Z,102343.41
2023-09-30T11:41:58.348Z,102349.19
2023-09-30T11:44:27.723Z,102342.09
2023-09-30T11:47:01.918Z,102348.59
2023-09-30T11:49:39.494Z,102340.28
2023-09-30T11:52:10.802Z,102349.81
2023-09-30T11:54:42.492Z,102351.16
2023-09-30T11:57:11.219Z,102346.25
2023-09-30T11:59:40.338Z,102350.34
2023-09-30T12:02:15.014Z,102342.94
2023-09-30T12:04:44.907Z,102337.13
2023-09-30T12:07:12.794Z,102330.63
2023-09-30T12:09:40.942Z,102336.69
2023-09-30T12:12:12.826Z,102334.59
2023-09-30T12:14:40.813Z,102335.09
2023-09-30T12:17:12.882Z,102327.75
2023-09-30T12:19:42.463Z,102328.69
2023-09-30T12:22:11.461Z,102343.97
2023-09-30T12:24:39.157Z,102336.41
2023-09-30T12:27:07.048Z,102316.09
2023-09-30T12:29:34.257Z,102319.16
2023-09-30T12:32:02.292Z,102317.69
2023-09-30T12:34:29.877Z,102313.91
2023-09-30T12:36:58.134Z,102311.91
2023-09-30T12:39:27.212Z,102304.91
2023-09-30T12:41:55.512Z,102305.06
2023-09-30T12:44:24.070Z,102303.38
2023-09-30T12:46:52.504Z,102313.94
2023-09-30T12:49:19.992Z,102289.84
2023-09-30T12:51:47.354Z,102312.19
2023-09-30T12:54:15.943Z,102303.84
2023-09-30T12:56:43.578Z,102298.38
2023-09-30T12:59:10.816Z,102314.09
2023-09-30T13:01:37.972Z,102316.53
2023-09-30T13:04:09.269Z,102316.00
2023-09-30T13:06:37.050Z,102314.88
2023-09-30T13:09:06.033Z,102313.41
2023-09-30T13:11:35.722Z,102295.94
2023-09-30T13:14:04.412Z,102293.47
2023-09-30T13:16:31.574Z,102293.50
2023-09-30T13:18:58.919Z,102316.81
2023-09-30T13:21:26.807Z,102291.59
2023-09-30T13:23:55.997Z,102280.41
2023-09-30T13:26:23.326Z,102276.94
2023-09-30T13:28:50.372Z,102274.13
2023-09-30T13:31:18.013Z,102271.84
2023-09-30T13:33:45.279Z,102276.28
2023-09-30T13:36:12.493Z,102289.19
2023-09-30T13:38:39.585Z,102284.31
2023-09-30T13:41:06.623Z,102287.78
2023-09-30T13:43:33.702Z,102290.25
2023-09-30T13:46:05.033Z,102286.56
2023-09-30T13:48:32.334Z,102278.19
2023-09-30T13:51:10.128Z,102293.84
2023-09-30T13:53:37.760Z,102290.16
2023-09-30T13:56:05.004Z,102284.59
2023-09-30T13:58:32.183Z,102280.03
2023-09-30T14:00:59.678Z,102286.38
2023-09-30T14:03:27.017Z,102274.28
2023-09-30T14:06:00.431Z,102266.59
2023-09-30T14:08:27.518Z,102260.41
2023-09-30T14:10:54.566Z,102263.78
2023-09-30T14:13:21.653Z,102272.91
2023-09-30T14:15:48.878Z,102272.75
2023-09-30T14:18:16.227Z,102271.75
2023-09-30T14:20:43.649Z,102263.78
2023-09-30T14:23:10.974Z,102273.22
2023-09-30T14:25:38.100Z,102266.53
2023-09-30T14:28:06.475Z,102262.63
2023-09-30T14:30:34.616Z,102261.44
2023-09-30T14:33:02.156Z,102264.78
2023-09-30T14:35:29.391Z,102271.16
2023-09-30T14:37:58.378Z,102268.19
2023-09-30T14:40:25.657Z,102273.38
2023-09-30T14:42:53.035Z,102261.03
2023-09-30T14:45:21.762Z,102268.44
2023-09-30T14:47:49.146Z,102269.94
2023-09-30T14:50:17.088Z,102267.56
2023-09-30T14:52:44.185Z,102246.69
2023-09-30T14:55:11.493Z,102259.47
2023-09-30T14:57:38.735Z,102260.22
2023-09-30T15:00:07.756Z,102273.38
2023-09-30T15:02:35.192Z,102269.84
2023-09-30T15:05:02.308Z,102269.28
2023-09-30T15:07:29.405Z,102272.69
2023-09-30T15:09:56.600Z,102267.84
2023-09-30T15:12:23.661Z,102262.78
2023-09-30T15:14:52.573Z,102262.94
2023-09-30T15:17:20.044Z,102271.72
2023-09-30T15:19:47.308Z,102272.53
2023-09-30T15:22:15.730Z,102271.84
2023-09-30T15:24:42.990Z,102274.78
2023-09-30T15:27:10.147Z,102262.06
2023-09-30T15:29:37.494Z,102258.44
2023-09-30T15:32:05.998Z,102275.84
2023-09-30T15:34:33.260Z,102271.97
2023-09-30T15:37:00.471Z,102274.47
2023-09-30T15:39:27.580Z,102270.56
2023-09-30T15:41:54.796Z,102282.38
2023-09-30T15:44:21.953Z,102278.91
2023-09-30T15:46:49.031Z,102286.00
2023-09-30T15:49:16.288Z,102287.13
2023-09-30T15:51:43.431Z,102289.78
2023-09-30T15:54:10.679Z,102274.97
2023-09-30T15:56:49.967Z,102275.94
2023-09-30T15:59:23.271Z,102269.44
2023-09-30T16:01:50.593Z,102277.84
2023-09-30T16:04:17.812Z,102269.81
2023-09-30T16:06:45.006Z,102274.50
2023-09-30T16:09:12.238Z,102277.56
2023-09-30T16:11:39.286Z,102272.91
2023-09-30T16:14:07.207Z,102258.78
2023-09-30T16:16:34.842Z,102267.25
2023-09-30T16:19:02.016Z,102271.94
2023-09-30T16:21:29.547Z,102269.53
2023-09-30T16:23:56.863Z,102279.47
2023-09-30T16:26:24.118Z,102286.84
2023-09-30T16:28:52.693Z,102290.22
2023-09-30T16:31:20.085Z,102286.00
2023-09-30T16:33:47.331Z,102294.97
2023-09-30T16:36:15.556Z,102284.66
2023-09-30T16:38:42.852Z,102292.84
2023-09-30T16:41:10.002Z,102300.22
2023-09-30T16:43:37.487Z,102294.41
2023-09-30T16:46:05.884Z,102285.69
2023-09-30T16:48:33.274Z,102291.97
2023-09-30T16:51:00.811Z,102291.75
2023-09-30T16:53:28.733Z,102279.09
2023-09-30T16:55:55.847Z,102283.06
2023-09-30T16:58:22.950Z,102293.00
2023-09-30T17:00:50.402Z,102291.53
2023-09-30T17:03:17.578Z,102283.47
2023-09-30T17:05:44.805Z,102281.69
2023-09-30T17:08:13.114Z,102283.53
2023-09-30T17:10:40.418Z,102295.88
2023-09-30T17:13:07.575Z,102290.03
2023-09-30T17:15:35.162Z,102297.88
2023-09-30T17:18:02.476Z,102293.53
2023-09-30T17:20:30.393Z,102293.53
2023-09-30T17:22:57.727Z,102293.34
2023-09-30T17:25:27.145Z,102294.75
2023-09-30T17:27:54.406Z,102294.75
2023-09-30T17:30:38.260Z,102296.50
2023-09-30T17:33:08.428Z,102286.53
2023-09-30T17:35:39.794Z,102293.13
2023-09-30T17:38:07.003Z,102288.47
2023-09-30T17:40:34.102Z,102291.06
2023-09-30T17:43:01.286Z,102294.69
2023-09-30T17:45:28.920Z,102284.09
2023-09-30T17:47:56.153Z,102295.22
2023-09-30T17:50:23.334Z,102281.66
2023-09-30T17:52:51.791Z,102283.63
2023-09-30T17:55:18.874Z,102290.84
2023-09-30T17:57:46.493Z,102286.59
2023-09-30T18:00:14.526Z,102277.63
2023-09-30T18:02:41.696Z,102284.16
2023-09-30T18:05:09.598Z,102280.56
2023-09-30T18:07:36.736Z,102284.09
2023-09-30T18:10:04.418Z,102285.72
2023-09-30T18:12:31.574Z,102277.34
2023-09-30T18:15:00.215Z,102283.91
2023-09-30T18:17:27.503Z,102289.34
2023-09-30T18:19:54.744Z,102279.69
2023-09-30T18:22:21.950Z,102276.78
2023-09-30T18:24:49.212Z,102280.59
2023-09-30T18:27:16.394Z,102265.78
2023-09-30T18:29:44.475Z,102268.69
2023-09-30T18:32:12.013Z,102265.00
2023-09-30T18:34:39.175Z,102265.19
2023-09-30T18:37:06.505Z,102262.59
2023-09-30T18:39:33.917Z,102262.16
2023-09-30T18:42:01.085Z,102274.16
2023-09-30T18:44:28.259Z,102264.72
2023-09-30T18:46:55.574Z,102264.22
2023-09-30T18:49:22.838Z,102262.28
2023-09-30T18:51:51.541Z,102265.81
2023-09-30T18:54:18.999Z,102256.84
2023-09-30T18:56:47.524Z,102250.59
2023-09-30T18:59:21.689Z,102258.94
2023-09-30T19:01:52.380Z,102251.56
2023-09-30T19:04:19.905Z,102250.75
2023-09-30T19:06:47.460Z,102251.91
2023-09-30T19:09:15.576Z,102247.16
2023-09-30T19:11:45.026Z,102252.59
2023-09-30T19:14:14.657Z,102248.78
2023-09-30T19:16:44.768Z,102252.09
2023-09-30T19:19:12.934Z,102252.81
2023-09-30T19:21:40.599Z,102256.03
2023-09-30T19:24:08.432Z,102249.09
2023-09-30T19:26:36.519Z,102256.03
2023-09-30T19:29:05.259Z,102256.34
2023-09-30T19:31:32.852Z,102245.69
2023-09-30T19:34:00.137Z,102250.81
2023-09-30T19:36:28.698Z,102248.56
2023-09-30T19:38:56.068Z,102248.56
2023-09-30T19:41:23.475Z,102237.81
2023-09-30T19:43:51.839Z,102248.16
2023-09-30T19:46:19.297Z,102248.41
2023-09-30T19:48:46.766Z,102244.44
2023-09-30T19:51:22.914Z,102236.47
2023-09-30T19:53:50.914Z,102242.81
2023-09-30T19:56:17.996Z,102238.47
2023-09-30T19:58:45.077Z,102236.41
2023-09-30T20:01:13.114Z,102228.63
2023-09-30T20:03:40.372Z,102232.66
2023-09-30T20:06:21.058Z,102237.66
2023-09-30T20:08:49.976Z,102241.03
2023-09-30T20:11:28.815Z,102234.25
2023-09-30T20:13:57.433Z,102238.41
2023-09-30T20:16:24.966Z,102239.41
2023-09-30T20:18:52.471Z,102243.47
2023-09-30T20:21:21.724Z,102232.34
2023-09-30T20:23:51.072Z,102242.00
2023-09-30T20:26:27.858Z,102242.94
2023-09-30T20:28:58.225Z,102236.41
2023-09-30T20:31:27.384Z,102232.06
2023-09-30T20:33:55.304Z,102232.75
2023-09-30T20:36:23.431Z,102234.38
2023-09-30T20:38:50.558Z,102218.16
2023-09-30T20:41:18.154Z,102213.03
2023-09-30T20:43:45.838Z,102221.34
2023-09-30T20:46:14.196Z,102237.09
2023-09-30T20:48:43.437Z,102224.41
2023-09-30T20:51:11.248Z,102219.16
2023-09-30T20:53:40.148Z,102216.56
2023-09-30T20:56:12.105Z,102213.53
2023-09-30T20:58:40.191Z,102210.00
2023-09-30T21:01:10.737Z,102204.88
2023-09-30T21:03:38.726Z,102204.16
2023-09-30T21:06:07.625Z,102200.03
2023-09-30T21:08:37.675Z,102194.97
2023-09-30T21:11:08.708Z,102198.13
2023-09-30T21:13:36.150Z,102194.19
2023-09-30T21:16:04.876Z,102179.06
2023-09-30T21:18:33.651Z,102191.75
2023-09-30T21:21:01.229Z,102193.06
2023-09-30T21:23:29.221Z,102188.13
2023-09-30T21:25:56.951Z,102196.19
2023-09-30T21:28:24.932Z,102192.94
2023-09-30T21:30:52.287Z,102193.19
2023-09-30T21:33:19.374Z,102201.22
2023-09-30T21:35:58.310Z,102202.84
2023-09-30T21:38:26.119Z,102205.56
2023-09-30T21:40:53.412Z,102195.47
2023-09-30T21:43:20.773Z,102203.34
2023-09-30T21:45:47.977Z,102196.72
2023-09-30T21:48:15.084Z,102198.00
2023-09-30T21:50:48.350Z,102198.63
2023-09-30T21:53:16.194Z,102190.22
2023-09-30T21:55:43.857Z,102178.66
2023-09-30T21:58:10.936Z,102187.63
2023-09-30T22:00:39.847Z,102181.19
2023-09-30T22:03:10.165Z,102184.91
2023-09-30T22:05:52.006Z,102187.75
2023-09-30T22:08:26.458Z,102186.63
2023-09-30T22:10:55.222Z,102183.31
2023-09-30T22:13:23.918Z,102184.91
2023-09-30T22:15:55.405Z,102178.84
2023-09-30T22:18:25.696Z,102189.16
2023-09-30T22:20:53.688Z,102192.16
2023-09-30T22:23:20.872Z,102182.59
2023-09-30T22:25:49.965Z,102186.44
2023-09-30T22:28:18.190Z,102188.34
2023-09-30T22:30:47.475Z,102174.97
2023-09-30T22:33:15.881Z,102180.75
2023-09-30T22:35:43.118Z,102195.09
2023-09-30T22:38:10.526Z,102181.28
2023-09-30T22:40:37.964Z,102179.38
2023-09-30T22:43:08.095Z,102184.00
2023-09-30T22:45:35.707Z,102174.22
2023-09-30T22:48:03.844Z,102170.22
2023-09-30T22:50:33.742Z,102174.03
2023-09-30T22:53:02.125Z,102171.78
2023-09-30T22:55:29.232Z,102167.16
2023-09-30T22:57:56.703Z,102165.06
2023-09-30T23:00:28.377Z,102154.00
2023-09-30T23:02:56.324Z,102156.63
2023-09-30T23:05:26.319Z,102161.38
2023-09-30T23:07:53.465Z,102157.84
2023-09-30T23:10:20.919Z,102154.69
2023-09-30T23:12:50.173Z,102151.84
2023-09-30T23:15:19.651Z,102138.72
2023-09-30T23:17:48.770Z,102139.97
2023-09-30T23:20:21.695Z,102138.72
2023-09-30T23:22:54.287Z,102142.94
2023-09-30T23:25:36.181Z,102132.22
2023-09-30T23:28:04.592Z,102133.66
2023-09-30T23:30:33.811Z,102128.69
2023-09-30T23:33:07.556Z,102136.38
2023-09-30T23:35:37.569Z,102134.94
2023-09-30T23:38:07.519Z,102144.44
2023-09-30T23:40:35.124Z,102150.75
2023-09-30T23:43:03.308Z,102152.97
2023-09-30T23:45:36.078Z,102155.38
2023-09-30T23:48:08.358Z,102155.69
2023-09-30T23:50:36.985Z,102148.63
2023-09-30T23:53:07.753Z,102144.28
2023-09-30T23:55:37.495Z,102141.56
2023-09-30T23:58:16.569Z,102129.03
